sensor_id;sensor_type;location;lat;lon;timestamp;P1;durP1;ratioP1;P2;durP2;ratioP2
7899;SDS011;3995;50.856;4.404;2023-02-13T00:01:08;38.65;;;29.75;;
7899;SDS011;3995;50.856;4.404;2023-02-13T00:03:36;40.38;;;31.83;;
7899;SDS011;3995;50.856;4.404;2023-02-13T00:06:04;35.47;;;29.70;;
7899;SDS011;3995;50.856;4.404;2023-02-13T00:08:31;41.67;;;31.70;;
7899;SDS011;3995;50.856;4.404;2023-02-13T00:10:59;41.03;;;31.55;;
7899;SDS011;3995;50.856;4.404;2023-02-13T00:13:26;40.47;;;30.85;;
7899;SDS011;3995;50.856;4.404;2023-02-13T00:15:54;37.50;;;30.80;;
7899;SDS011;3995;50.856;4.404;2023-02-13T00:18:23;40.85;;;31.38;;
7899;SDS011;3995;50.856;4.404;2023-02-13T00:21:00;44.78;;;32.85;;
7899;SDS011;3995;50.856;4.404;2023-02-13T00:23:29;41.25;;;31.70;;
7899;SDS011;3995;50.856;4.404;2023-02-13T00:25:57;36.63;;;30.75;;
7899;SDS011;3995;50.856;4.404;2023-02-13T00:28:26;40.40;;;30.17;;
7899;SDS011;3995;50.856;4.404;2023-02-13T00:30:53;39.08;;;32.15;;
7899;SDS011;3995;50.856;4.404;2023-02-13T00:33:27;41.08;;;30.42;;
7899;SDS011;3995;50.856;4.404;2023-02-13T00:36:00;44.50;;;31.23;;
7899;SDS011;3995;50.856;4.404;2023-02-13T00:38:28;39.70;;;32.35;;
7899;SDS011;3995;50.856;4.404;2023-02-13T00:40:55;43.33;;;32.35;;
7899;SDS011;3995;50.856;4.404;2023-02-13T00:43:23;42.47;;;30.73;;
7899;SDS011;3995;50.856;4.404;2023-02-13T00:45:52;40.83;;;32.90;;
7899;SDS011;3995;50.856;4.404;2023-02-13T00:48:19;39.75;;;31.20;;
7899;SDS011;3995;50.856;4.404;2023-02-13T00:50:46;39.72;;;31.83;;
7899;SDS011;3995;50.856;4.404;2023-02-13T00:53:13;38.25;;;30.42;;
7899;SDS011;3995;50.856;4.404;2023-02-13T00:55:41;41.35;;;31.08;;
7899;SDS011;3995;50.856;4.404;2023-02-13T00:58:08;39.15;;;31.10;;
7899;SDS011;3995;50.856;4.404;2023-02-13T01:00:35;47.38;;;34.33;;
7899;SDS011;3995;50.856;4.404;2023-02-13T01:03:04;38.92;;;30.92;;
7899;SDS011;3995;50.856;4.404;2023-02-13T01:05:32;39.05;;;30.35;;
7899;SDS011;3995;50.856;4.404;2023-02-13T01:07:59;41.88;;;31.85;;
7899;SDS011;3995;50.856;4.404;2023-02-13T01:10:26;45.00;;;33.30;;
7899;SDS011;3995;50.856;4.404;2023-02-13T01:12:53;40.20;;;30.55;;
7899;SDS011;3995;50.856;4.404;2023-02-13T01:15:20;42.00;;;31.27;;
7899;SDS011;3995;50.856;4.404;2023-02-13T01:17:48;42.50;;;31.27;;
7899;SDS011;3995;50.856;4.404;2023-02-13T01:20:17;42.03;;;32.17;;
7899;SDS011;3995;50.856;4.404;2023-02-13T01:22:44;41.15;;;32.72;;
7899;SDS011;3995;50.856;4.404;2023-02-13T01:25:11;40.58;;;32.45;;
7899;SDS011;3995;50.856;4.404;2023-02-13T01:27:38;38.85;;;30.75;;
7899;SDS011;3995;50.856;4.404;2023-02-13T01:30:06;41.40;;;31.48;;
7899;SDS011;3995;50.856;4.404;2023-02-13T01:32:37;38.88;;;31.00;;
7899;SDS011;3995;50.856;4.404;2023-02-13T01:35:05;41.00;;;30.50;;
7899;SDS011;3995;50.856;4.404;2023-02-13T01:37:34;35.13;;;29.73;;
7899;SDS011;3995;50.856;4.404;2023-02-13T01:40:03;38.00;;;30.30;;
7899;SDS011;3995;50.856;4.404;2023-02-13T01:42:32;36.88;;;30.85;;
7899;SDS011;3995;50.856;4.404;2023-02-13T01:45:00;38.45;;;31.60;;
7899;SDS011;3995;50.856;4.404;2023-02-13T01:47:32;40.67;;;30.50;;
7899;SDS011;3995;50.856;4.404;2023-02-13T01:50:07;40.15;;;31.88;;
7899;SDS011;3995;50.856;4.404;2023-02-13T01:52:40;39.63;;;30.77;;
7899;SDS011;3995;50.856;4.404;2023-02-13T01:55:11;37.90;;;29.95;;
7899;SDS011;3995;50.856;4.404;2023-02-13T01:57:40;35.08;;;29.00;;
7899;SDS011;3995;50.856;4.404;2023-02-13T02:00:11;38.17;;;30.40;;
7899;SDS011;3995;50.856;4.404;2023-02-13T02:02:41;40.60;;;30.85;;
7899;SDS011;3995;50.856;4.404;2023-02-13T02:05:10;39.80;;;29.85;;
7899;SDS011;3995;50.856;4.404;2023-02-13T02:07:41;41.10;;;29.13;;
7899;SDS011;3995;50.856;4.404;2023-02-13T02:10:09;38.75;;;30.02;;
7899;SDS011;3995;50.856;4.404;2023-02-13T02:12:42;40.03;;;30.38;;
7899;SDS011;3995;50.856;4.404;2023-02-13T02:15:15;44.53;;;32.45;;
7899;SDS011;3995;50.856;4.404;2023-02-13T02:17:42;38.72;;;29.90;;
7899;SDS011;3995;50.856;4.404;2023-02-13T02:20:14;39.28;;;29.42;;
7899;SDS011;3995;50.856;4.404;2023-02-13T02:23:06;35.13;;;29.08;;
7899;SDS011;3995;50.856;4.404;2023-02-13T02:29:13;37.95;;;30.08;;
7899;SDS011;3995;50.856;4.404;2023-02-13T02:34:50;38.22;;;30.27;;
7899;SDS011;3995;50.856;4.404;2023-02-13T02:37:32;38.13;;;30.13;;
7899;SDS011;3995;50.856;4.404;2023-02-13T02:40:11;36.92;;;29.45;;
7899;SDS011;3995;50.856;4.404;2023-02-13T02:42:48;36.42;;;29.45;;
7899;SDS011;3995;50.856;4.404;2023-02-13T02:45:27;38.10;;;28.80;;
7899;SDS011;3995;50.856;4.404;2023-02-13T02:48:03;37.58;;;30.27;;
7899;SDS011;3995;50.856;4.404;2023-02-13T02:50:55;38.92;;;30.50;;
7899;SDS011;3995;50.856;4.404;2023-02-13T02:53:29;38.80;;;30.98;;
7899;SDS011;3995;50.856;4.404;2023-02-13T02:56:00;38.85;;;29.95;;
7899;SDS011;3995;50.856;4.404;2023-02-13T02:58:35;39.83;;;31.00;;
7899;SDS011;3995;50.856;4.404;2023-02-13T03:01:26;39.22;;;30.98;;
7899;SDS011;3995;50.856;4.404;2023-02-13T03:04:15;38.42;;;30.42;;
7899;SDS011;3995;50.856;4.404;2023-02-13T03:07:03;38.92;;;30.00;;
7899;SDS011;3995;50.856;4.404;2023-02-13T03:09:34;37.63;;;28.92;;
7899;SDS011;3995;50.856;4.404;2023-02-13T03:12:22;37.35;;;29.02;;
7899;SDS011;3995;50.856;4.404;2023-02-13T03:15:09;39.28;;;29.50;;
7899;SDS011;3995;50.856;4.404;2023-02-13T03:17:37;36.92;;;28.75;;
7899;SDS011;3995;50.856;4.404;2023-02-13T03:20:25;37.40;;;30.63;;
7899;SDS011;3995;50.856;4.404;2023-02-13T03:23:21;37.58;;;30.65;;
7899;SDS011;3995;50.856;4.404;2023-02-13T03:25:59;43.03;;;31.17;;
7899;SDS011;3995;50.856;4.404;2023-02-13T03:28:39;36.53;;;30.38;;
7899;SDS011;3995;50.856;4.404;2023-02-13T03:31:33;39.40;;;30.27;;
7899;SDS011;3995;50.856;4.404;2023-02-13T03:34:04;36.38;;;29.67;;
7899;SDS011;3995;50.856;4.404;2023-02-13T03:36:42;34.15;;;29.10;;
7899;SDS011;3995;50.856;4.404;2023-02-13T03:39:34;34.60;;;29.60;;
7899;SDS011;3995;50.856;4.404;2023-02-13T03:42:10;35.67;;;30.20;;
7899;SDS011;3995;50.856;4.404;2023-02-13T03:44:47;39.42;;;29.70;;
7899;SDS011;3995;50.856;4.404;2023-02-13T03:47:38;34.13;;;28.70;;
7899;SDS011;3995;50.856;4.404;2023-02-13T03:50:08;38.75;;;29.23;;
7899;SDS011;3995;50.856;4.404;2023-02-13T03:52:38;35.78;;;28.10;;
7899;SDS011;3995;50.856;4.404;2023-02-13T03:55:11;33.50;;;26.63;;
7899;SDS011;3995;50.856;4.404;2023-02-13T03:57:58;37.30;;;27.88;;
7899;SDS011;3995;50.856;4.404;2023-02-13T04:00:47;32.30;;;26.58;;
7899;SDS011;3995;50.856;4.404;2023-02-13T04:03:19;34.28;;;28.20;;
7899;SDS011;3995;50.856;4.404;2023-02-13T04:05:51;35.15;;;27.00;;
7899;SDS011;3995;50.856;4.404;2023-02-13T04:08:22;36.38;;;28.17;;
7899;SDS011;3995;50.856;4.404;2023-02-13T04:10:51;32.83;;;26.60;;
7899;SDS011;3995;50.856;4.404;2023-02-13T04:13:23;31.02;;;25.48;;
7899;SDS011;3995;50.856;4.404;2023-02-13T04:15:55;35.75;;;28.55;;
7899;SDS011;3995;50.856;4.404;2023-02-13T04:18:24;35.17;;;27.10;;
7899;SDS011;3995;50.856;4.404;2023-02-13T04:20:54;34.45;;;25.05;;
7899;SDS011;3995;50.856;4.404;2023-02-13T04:23:23;32.63;;;26.65;;
7899;SDS011;3995;50.856;4.404;2023-02-13T04:25:51;29.75;;;25.60;;
7899;SDS011;3995;50.856;4.404;2023-02-13T04:28:21;36.35;;;25.95;;
7899;SDS011;3995;50.856;4.404;2023-02-13T04:30:48;33.55;;;26.55;;
7899;SDS011;3995;50.856;4.404;2023-02-13T04:33:15;31.30;;;25.02;;
7899;SDS011;3995;50.856;4.404;2023-02-13T04:35:43;34.42;;;25.55;;
7899;SDS011;3995;50.856;4.404;2023-02-13T04:38:10;27.00;;;23.38;;
7899;SDS011;3995;50.856;4.404;2023-02-13T04:40:39;29.20;;;23.40;;
7899;SDS011;3995;50.856;4.404;2023-02-13T04:43:06;27.50;;;22.70;;
7899;SDS011;3995;50.856;4.404;2023-02-13T04:45:34;28.38;;;23.20;;
7899;SDS011;3995;50.856;4.404;2023-02-13T04:48:01;28.50;;;24.10;;
7899;SDS011;3995;50.856;4.404;2023-02-13T04:50:29;26.20;;;21.45;;
7899;SDS011;3995;50.856;4.404;2023-02-13T04:52:56;25.05;;;21.55;;
7899;SDS011;3995;50.856;4.404;2023-02-13T04:55:24;25.77;;;21.17;;
7899;SDS011;3995;50.856;4.404;2023-02-13T04:57:54;26.83;;;22.50;;
7899;SDS011;3995;50.856;4.404;2023-02-13T05:00:22;26.10;;;23.00;;
7899;SDS011;3995;50.856;4.404;2023-02-13T05:02:51;25.52;;;21.17;;
7899;SDS011;3995;50.856;4.404;2023-02-13T05:05:19;27.67;;;22.67;;
7899;SDS011;3995;50.856;4.404;2023-02-13T05:07:46;25.45;;;20.88;;
7899;SDS011;3995;50.856;4.404;2023-02-13T05:10:13;25.83;;;22.80;;
7899;SDS011;3995;50.856;4.404;2023-02-13T05:12:40;26.33;;;21.60;;
7899;SDS011;3995;50.856;4.404;2023-02-13T05:15:09;25.98;;;20.65;;
7899;SDS011;3995;50.856;4.404;2023-02-13T05:17:36;23.67;;;21.08;;
7899;SDS011;3995;50.856;4.404;2023-02-13T05:20:04;23.88;;;20.73;;
7899;SDS011;3995;50.856;4.404;2023-02-13T05:22:32;23.20;;;19.52;;
7899;SDS011;3995;50.856;4.404;2023-02-13T05:25:16;26.02;;;21.20;;
7899;SDS011;3995;50.856;4.404;2023-02-13T05:27:43;28.10;;;21.23;;
7899;SDS011;3995;50.856;4.404;2023-02-13T05:30:13;28.70;;;21.50;;
7899;SDS011;3995;50.856;4.404;2023-02-13T05:32:39;24.63;;;19.80;;
7899;SDS011;3995;50.856;4.404;2023-02-13T05:35:07;21.70;;;18.55;;
7899;SDS011;3995;50.856;4.404;2023-02-13T05:37:34;23.75;;;19.75;;
7899;SDS011;3995;50.856;4.404;2023-02-13T05:40:02;23.92;;;19.42;;
7899;SDS011;3995;50.856;4.404;2023-02-13T05:42:29;24.25;;;20.58;;
7899;SDS011;3995;50.856;4.404;2023-02-13T05:44:56;26.77;;;19.17;;
7899;SDS011;3995;50.856;4.404;2023-02-13T05:47:25;24.55;;;20.08;;
7899;SDS011;3995;50.856;4.404;2023-02-13T05:49:52;22.63;;;19.23;;
7899;SDS011;3995;50.856;4.404;2023-02-13T05:52:19;27.75;;;23.88;;
7899;SDS011;3995;50.856;4.404;2023-02-13T05:54:47;26.15;;;20.25;;
7899;SDS011;3995;50.856;4.404;2023-02-13T05:57:14;21.67;;;19.13;;
7899;SDS011;3995;50.856;4.404;2023-02-13T05:59:42;23.67;;;19.52;;
7899;SDS011;3995;50.856;4.404;2023-02-13T06:02:09;22.92;;;19.88;;
7899;SDS011;3995;50.856;4.404;2023-02-13T06:04:38;21.08;;;18.67;;
7899;SDS011;3995;50.856;4.404;2023-02-13T06:07:05;24.00;;;20.10;;
7899;SDS011;3995;50.856;4.404;2023-02-13T06:09:32;24.98;;;20.55;;
7899;SDS011;3995;50.856;4.404;2023-02-13T06:11:59;23.55;;;19.60;;
7899;SDS011;3995;50.856;4.404;2023-02-13T06:14:27;26.73;;;20.33;;
7899;SDS011;3995;50.856;4.404;2023-02-13T06:16:54;26.25;;;18.77;;
7899;SDS011;3995;50.856;4.404;2023-02-13T06:19:21;20.83;;;18.02;;
7899;SDS011;3995;50.856;4.404;2023-02-13T06:21:50;23.80;;;19.70;;
7899;SDS011;3995;50.856;4.404;2023-02-13T06:24:17;19.75;;;17.60;;
7899;SDS011;3995;50.856;4.404;2023-02-13T06:26:44;23.60;;;20.70;;
7899;SDS011;3995;50.856;4.404;2023-02-13T06:29:11;21.33;;;18.00;;
7899;SDS011;3995;50.856;4.404;2023-02-13T06:31:38;20.05;;;16.55;;
7899;SDS011;3995;50.856;4.404;2023-02-13T06:34:05;17.40;;;15.13;;
7899;SDS011;3995;50.856;4.404;2023-02-13T06:36:33;20.00;;;16.95;;
7899;SDS011;3995;50.856;4.404;2023-02-13T06:39:03;16.70;;;14.90;;
7899;SDS011;3995;50.856;4.404;2023-02-13T06:41:30;21.15;;;15.68;;
7899;SDS011;3995;50.856;4.404;2023-02-13T06:43:57;17.05;;;13.68;;
7899;SDS011;3995;50.856;4.404;2023-02-13T06:46:24;18.02;;;14.63;;
7899;SDS011;3995;50.856;4.404;2023-02-13T06:48:52;16.33;;;13.90;;
7899;SDS011;3995;50.856;4.404;2023-02-13T06:51:19;15.30;;;13.38;;
7899;SDS011;3995;50.856;4.404;2023-02-13T06:53:46;19.13;;;14.48;;
7899;SDS011;3995;50.856;4.404;2023-02-13T06:56:16;17.98;;;13.20;;
7899;SDS011;3995;50.856;4.404;2023-02-13T06:58:43;21.42;;;16.23;;
7899;SDS011;3995;50.856;4.404;2023-02-13T07:01:10;21.50;;;15.15;;
7899;SDS011;3995;50.856;4.404;2023-02-13T07:03:37;17.02;;;14.18;;
7899;SDS011;3995;50.856;4.404;2023-02-13T07:06:05;19.50;;;13.80;;
7899;SDS011;3995;50.856;4.404;2023-02-13T07:08:32;22.90;;;17.25;;
7899;SDS011;3995;50.856;4.404;2023-02-13T07:11:00;22.80;;;15.68;;
7899;SDS011;3995;50.856;4.404;2023-02-13T07:13:29;22.73;;;15.15;;
7899;SDS011;3995;50.856;4.404;2023-02-13T07:15:59;23.48;;;16.63;;
7899;SDS011;3995;50.856;4.404;2023-02-13T07:18:26;18.58;;;12.68;;
7899;SDS011;3995;50.856;4.404;2023-02-13T07:20:53;21.35;;;13.82;;
7899;SDS011;3995;50.856;4.404;2023-02-13T07:23:21;27.05;;;13.70;;
7899;SDS011;3995;50.856;4.404;2023-02-13T07:25:48;32.65;;;14.52;;
7899;SDS011;3995;50.856;4.404;2023-02-13T07:28:15;21.08;;;13.57;;
7899;SDS011;3995;50.856;4.404;2023-02-13T07:30:44;16.90;;;12.43;;
7899;SDS011;3995;50.856;4.404;2023-02-13T07:33:11;16.35;;;12.48;;
7899;SDS011;3995;50.856;4.404;2023-02-13T07:35:38;18.45;;;12.93;;
7899;SDS011;3995;50.856;4.404;2023-02-13T07:38:11;15.73;;;11.77;;
7899;SDS011;3995;50.856;4.404;2023-02-13T07:40:38;26.20;;;12.57;;
7899;SDS011;3995;50.856;4.404;2023-02-13T07:43:05;16.70;;;10.68;;
7899;SDS011;3995;50.856;4.404;2023-02-13T07:45:32;21.88;;;10.98;;
7899;SDS011;3995;50.856;4.404;2023-02-13T07:48:02;17.35;;;12.55;;
7899;SDS011;3995;50.856;4.404;2023-02-13T07:50:29;17.73;;;11.93;;
7899;SDS011;3995;50.856;4.404;2023-02-13T07:52:57;22.27;;;13.45;;
7899;SDS011;3995;50.856;4.404;2023-02-13T07:55:25;22.88;;;13.60;;
7899;SDS011;3995;50.856;4.404;2023-02-13T07:57:52;21.48;;;12.40;;
7899;SDS011;3995;50.856;4.404;2023-02-13T08:00:20;35.50;;;14.98;;
7899;SDS011;3995;50.856;4.404;2023-02-13T08:02:48;32.75;;;15.93;;
7899;SDS011;3995;50.856;4.404;2023-02-13T08:05:18;24.83;;;13.40;;
7899;SDS011;3995;50.856;4.404;2023-02-13T08:07:45;18.73;;;13.30;;
7899;SDS011;3995;50.856;4.404;2023-02-13T08:10:12;19.20;;;12.40;;
7899;SDS011;3995;50.856;4.404;2023-02-13T08:13:06;18.48;;;13.02;;
7899;SDS011;3995;50.856;4.404;2023-02-13T08:15:34;19.33;;;12.45;;
7899;SDS011;3995;50.856;4.404;2023-02-13T08:18:01;15.48;;;12.23;;
7899;SDS011;3995;50.856;4.404;2023-02-13T08:20:30;14.55;;;12.70;;
7899;SDS011;3995;50.856;4.404;2023-02-13T08:23:01;16.05;;;12.10;;
7899;SDS011;3995;50.856;4.404;2023-02-13T08:25:28;16.73;;;12.50;;
7899;SDS011;3995;50.856;4.404;2023-02-13T08:27:55;17.77;;;13.15;;
7899;SDS011;3995;50.856;4.404;2023-02-13T08:30:23;17.73;;;13.18;;
7899;SDS011;3995;50.856;4.404;2023-02-13T08:32:51;22.60;;;12.85;;
7899;SDS011;3995;50.856;4.404;2023-02-13T08:35:18;15.63;;;12.73;;
7899;SDS011;3995;50.856;4.404;2023-02-13T08:37:48;22.58;;;12.70;;
7899;SDS011;3995;50.856;4.404;2023-02-13T08:40:15;23.20;;;13.52;;
7899;SDS011;3995;50.856;4.404;2023-02-13T08:42:42;15.27;;;12.23;;
7899;SDS011;3995;50.856;4.404;2023-02-13T08:45:09;17.42;;;13.02;;
7899;SDS011;3995;50.856;4.404;2023-02-13T08:47:37;17.20;;;13.35;;
7899;SDS011;3995;50.856;4.404;2023-02-13T08:50:05;18.75;;;13.88;;
7899;SDS011;3995;50.856;4.404;2023-02-13T08:52:33;20.70;;;13.57;;
7899;SDS011;3995;50.856;4.404;2023-02-13T08:55:02;17.00;;;12.55;;
7899;SDS011;3995;50.856;4.404;2023-02-13T08:57:29;17.98;;;12.73;;
7899;SDS011;3995;50.856;4.404;2023-02-13T08:59:57;16.73;;;13.75;;
7899;SDS011;3995;50.856;4.404;2023-02-13T09:02:24;15.88;;;12.38;;
7899;SDS011;3995;50.856;4.404;2023-02-13T09:04:51;20.90;;;13.05;;
7899;SDS011;3995;50.856;4.404;2023-02-13T09:07:18;16.23;;;13.65;;
7899;SDS011;3995;50.856;4.404;2023-02-13T09:09:46;21.85;;;12.13;;
7899;SDS011;3995;50.856;4.404;2023-02-13T09:12:14;15.57;;;11.30;;
7899;SDS011;3995;50.856;4.404;2023-02-13T09:14:41;14.00;;;12.18;;
7899;SDS011;3995;50.856;4.404;2023-02-13T09:17:09;16.48;;;12.35;;
7899;SDS011;3995;50.856;4.404;2023-02-13T09:19:36;16.10;;;11.50;;
7899;SDS011;3995;50.856;4.404;2023-02-13T09:22:03;14.90;;;11.77;;
7899;SDS011;3995;50.856;4.404;2023-02-13T09:24:31;27.30;;;12.38;;
7899;SDS011;3995;50.856;4.404;2023-02-13T09:26:58;19.98;;;12.65;;
7899;SDS011;3995;50.856;4.404;2023-02-13T09:29:27;13.88;;;12.05;;
7899;SDS011;3995;50.856;4.404;2023-02-13T09:31:57;14.60;;;10.93;;
7899;SDS011;3995;50.856;4.404;2023-02-13T09:34:25;20.33;;;12.02;;
7899;SDS011;3995;50.856;4.404;2023-02-13T09:36:52;11.90;;;10.45;;
7899;SDS011;3995;50.856;4.404;2023-02-13T09:39:19;13.13;;;10.18;;
7899;SDS011;3995;50.856;4.404;2023-02-13T09:41:47;14.65;;;10.10;;
7899;SDS011;3995;50.856;4.404;2023-02-13T09:44:17;13.73;;;11.30;;
7899;SDS011;3995;50.856;4.404;2023-02-13T09:47:01;38.08;;;13.43;;
7899;SDS011;3995;50.856;4.404;2023-02-13T09:49:31;14.50;;;11.25;;
7899;SDS011;3995;50.856;4.404;2023-02-13T09:52:00;13.57;;;10.30;;
7899;SDS011;3995;50.856;4.404;2023-02-13T09:54:28;14.00;;;11.25;;
7899;SDS011;3995;50.856;4.404;2023-02-13T09:56:57;20.25;;;12.25;;
7899;SDS011;3995;50.856;4.404;2023-02-13T09:59:32;12.90;;;11.52;;
7899;SDS011;3995;50.856;4.404;2023-02-13T10:02:19;12.65;;;11.35;;
7899;SDS011;3995;50.856;4.404;2023-02-13T10:05:08;15.30;;;11.55;;
7899;SDS011;3995;50.856;4.404;2023-02-13T10:07:45;16.05;;;11.57;;
7899;SDS011;3995;50.856;4.404;2023-02-13T10:10:22;16.40;;;10.38;;
7899;SDS011;3995;50.856;4.404;2023-02-13T10:13:01;10.60;;;9.50;;
7899;SDS011;3995;50.856;4.404;2023-02-13T10:15:42;11.88;;;10.65;;
7899;SDS011;3995;50.856;4.404;2023-02-13T10:18:16;13.13;;;10.63;;
7899;SDS011;3995;50.856;4.404;2023-02-13T10:20:49;14.40;;;10.43;;
7899;SDS011;3995;50.856;4.404;2023-02-13T10:23:21;13.27;;;10.45;;
7899;SDS011;3995;50.856;4.404;2023-02-13T10:25:52;13.55;;;11.48;;
7899;SDS011;3995;50.856;4.404;2023-02-13T10:28:31;11.88;;;10.60;;
7899;SDS011;3995;50.856;4.404;2023-02-13T10:31:32;21.35;;;10.50;;
7899;SDS011;3995;50.856;4.404;2023-02-13T10:34:02;12.50;;;10.15;;
7899;SDS011;3995;50.856;4.404;2023-02-13T10:36:36;14.48;;;10.38;;
7899;SDS011;3995;50.856;4.404;2023-02-13T10:39:13;12.90;;;10.43;;
7899;SDS011;3995;50.856;4.404;2023-02-13T10:41:49;11.05;;;9.82;;
7899;SDS011;3995;50.856;4.404;2023-02-13T10:47:18;11.45;;;9.85;;
7899;SDS011;3995;50.856;4.404;2023-02-13T10:50:02;11.77;;;10.50;;
7899;SDS011;3995;50.856;4.404;2023-02-13T10:52:43;12.65;;;9.40;;
7899;SDS011;3995;50.856;4.404;2023-02-13T10:55:27;12.20;;;9.88;;
7899;SDS011;3995;50.856;4.404;2023-02-13T10:58:11;9.82;;;8.70;;
7899;SDS011;3995;50.856;4.404;2023-02-13T11:00:44;11.88;;;9.35;;
7899;SDS011;3995;50.856;4.404;2023-02-13T11:03:17;11.40;;;10.20;;
7899;SDS011;3995;50.856;4.404;2023-02-13T11:05:48;10.13;;;9.02;;
7899;SDS011;3995;50.856;4.404;2023-02-13T11:08:17;19.30;;;9.93;;
7899;SDS011;3995;50.856;4.404;2023-02-13T11:10:47;12.80;;;10.07;;
7899;SDS011;3995;50.856;4.404;2023-02-13T11:13:16;17.63;;;9.88;;
7899;SDS011;3995;50.856;4.404;2023-02-13T11:15:58;10.57;;;9.48;;
7899;SDS011;3995;50.856;4.404;2023-02-13T11:18:28;12.55;;;10.10;;
7899;SDS011;3995;50.856;4.404;2023-02-13T11:21:00;11.20;;;9.60;;
7899;SDS011;3995;50.856;4.404;2023-02-13T11:23:41;11.77;;;9.18;;
7899;SDS011;3995;50.856;4.404;2023-02-13T11:26:10;16.33;;;10.40;;
7899;SDS011;3995;50.856;4.404;2023-02-13T11:28:46;14.68;;;10.20;;
7899;SDS011;3995;50.856;4.404;2023-02-13T11:31:23;12.10;;;10.13;;
7899;SDS011;3995;50.856;4.404;2023-02-13T11:33:52;10.48;;;8.75;;
7899;SDS011;3995;50.856;4.404;2023-02-13T11:36:26;17.35;;;10.00;;
7899;SDS011;3995;50.856;4.404;2023-02-13T11:38:58;11.75;;;9.45;;
7899;SDS011;3995;50.856;4.404;2023-02-13T11:41:27;12.65;;;10.65;;
7899;SDS011;3995;50.856;4.404;2023-02-13T11:43:56;58.40;;;12.30;;
7899;SDS011;3995;50.856;4.404;2023-02-13T11:46:26;15.35;;;10.98;;
7899;SDS011;3995;50.856;4.404;2023-02-13T11:48:55;13.18;;;10.20;;
7899;SDS011;3995;50.856;4.404;2023-02-13T11:54:23;10.90;;;9.07;;
7899;SDS011;3995;50.856;4.404;2023-02-13T11:56:55;12.23;;;9.27;;
7899;SDS011;3995;50.856;4.404;2023-02-13T11:59:24;12.73;;;9.70;;
7899;SDS011;3995;50.856;4.404;2023-02-13T12:02:00;12.27;;;9.38;;
7899;SDS011;3995;50.856;4.404;2023-02-13T12:04:30;12.77;;;9.57;;
7899;SDS011;3995;50.856;4.404;2023-02-13T12:06:59;10.65;;;9.55;;
7899;SDS011;3995;50.856;4.404;2023-02-13T12:09:27;10.77;;;9.45;;
7899;SDS011;3995;50.856;4.404;2023-02-13T12:11:56;10.10;;;9.07;;
7899;SDS011;3995;50.856;4.404;2023-02-13T12:14:28;13.80;;;10.35;;
7899;SDS011;3995;50.856;4.404;2023-02-13T12:16:59;15.70;;;10.55;;
7899;SDS011;3995;50.856;4.404;2023-02-13T12:19:32;11.27;;;9.63;;
7899;SDS011;3995;50.856;4.404;2023-02-13T12:22:11;15.40;;;9.52;;
7899;SDS011;3995;50.856;4.404;2023-02-13T12:25:04;12.20;;;8.80;;
7899;SDS011;3995;50.856;4.404;2023-02-13T12:27:52;13.02;;;9.60;;
7899;SDS011;3995;50.856;4.404;2023-02-13T12:36:42;12.85;;;9.25;;
7899;SDS011;3995;50.856;4.404;2023-02-13T12:39:26;11.77;;;9.82;;
7899;SDS011;3995;50.856;4.404;2023-02-13T12:42:03;13.60;;;9.50;;
7899;SDS011;3995;50.856;4.404;2023-02-13T12:44:56;12.20;;;9.48;;
7899;SDS011;3995;50.856;4.404;2023-02-13T12:47:40;16.75;;;9.27;;
7899;SDS011;3995;50.856;4.404;2023-02-13T12:50:23;12.18;;;9.38;;
7899;SDS011;3995;50.856;4.404;2023-02-13T12:53:02;12.77;;;8.73;;
7899;SDS011;3995;50.856;4.404;2023-02-13T12:55:44;10.98;;;8.43;;
7899;SDS011;3995;50.856;4.404;2023-02-13T12:58:27;9.25;;;8.23;;
7899;SDS011;3995;50.856;4.404;2023-02-13T13:01:10;19.52;;;9.52;;
7899;SDS011;3995;50.856;4.404;2023-02-13T13:03:48;12.65;;;9.15;;
7899;SDS011;3995;50.856;4.404;2023-02-13T13:06:28;18.90;;;9.85;;
7899;SDS011;3995;50.856;4.404;2023-02-13T13:12:26;21.83;;;10.75;;
7899;SDS011;3995;50.856;4.404;2023-02-13T13:15:05;13.73;;;10.15;;
7899;SDS011;3995;50.856;4.404;2023-02-13T13:20:43;11.18;;;9.65;;
7899;SDS011;3995;50.856;4.404;2023-02-13T13:23:31;11.05;;;9.23;;
7899;SDS011;3995;50.856;4.404;2023-02-13T13:26:06;9.75;;;8.75;;
7899;SDS011;3995;50.856;4.404;2023-02-13T13:28:43;11.75;;;8.95;;
7899;SDS011;3995;50.856;4.404;2023-02-13T13:31:12;10.80;;;9.25;;
7899;SDS011;3995;50.856;4.404;2023-02-13T13:33:42;13.73;;;10.10;;
7899;SDS011;3995;50.856;4.404;2023-02-13T13:36:13;11.15;;;9.38;;
7899;SDS011;3995;50.856;4.404;2023-02-13T13:38:48;13.63;;;9.00;;
7899;SDS011;3995;50.856;4.404;2023-02-13T13:41:26;10.15;;;9.05;;
7899;SDS011;3995;50.856;4.404;2023-02-13T13:44:08;11.35;;;9.68;;
7899;SDS011;3995;50.856;4.404;2023-02-13T13:46:56;13.23;;;9.55;;
7899;SDS011;3995;50.856;4.404;2023-02-13T13:49:34;17.42;;;9.55;;
7899;SDS011;3995;50.856;4.404;2023-02-13T13:52:22;21.42;;;9.45;;
7899;SDS011;3995;50.856;4.404;2023-02-13T13:54:51;13.63;;;8.82;;
7899;SDS011;3995;50.856;4.404;2023-02-13T13:57:20;20.92;;;9.13;;
7899;SDS011;3995;50.856;4.404;2023-02-13T13:59:59;10.27;;;9.25;;
7899;SDS011;3995;50.856;4.404;2023-02-13T14:06:01;11.82;;;9.25;;
7899;SDS011;3995;50.856;4.404;2023-02-13T14:20:30;14.02;;;7.43;;
7899;SDS011;3995;50.856;4.404;2023-02-13T14:26:08;10.30;;;8.25;;
7899;SDS011;3995;50.856;4.404;2023-02-13T14:28:53;10.55;;;8.00;;
7899;SDS011;3995;50.856;4.404;2023-02-13T14:31:24;17.30;;;10.90;;
7899;SDS011;3995;50.856;4.404;2023-02-13T14:33:56;13.02;;;9.40;;
7899;SDS011;3995;50.856;4.404;2023-02-13T14:36:27;11.63;;;9.52;;
7899;SDS011;3995;50.856;4.404;2023-02-13T14:38:58;9.98;;;8.20;;
7899;SDS011;3995;50.856;4.404;2023-02-13T14:41:40;11.23;;;8.55;;
7899;SDS011;3995;50.856;4.404;2023-02-13T14:44:13;10.30;;;8.30;;
7899;SDS011;3995;50.856;4.404;2023-02-13T14:46:44;24.75;;;8.90;;
7899;SDS011;3995;50.856;4.404;2023-02-13T14:49:16;14.48;;;7.35;;
7899;SDS011;3995;50.856;4.404;2023-02-13T14:51:47;11.40;;;7.68;;
7899;SDS011;3995;50.856;4.404;2023-02-13T14:54:18;13.15;;;7.90;;
7899;SDS011;3995;50.856;4.404;2023-02-13T14:56:52;8.70;;;7.10;;
7899;SDS011;3995;50.856;4.404;2023-02-13T14:59:25;8.65;;;7.68;;
7899;SDS011;3995;50.856;4.404;2023-02-13T15:01:59;14.50;;;7.90;;
7899;SDS011;3995;50.856;4.404;2023-02-13T15:04:37;9.35;;;7.57;;
7899;SDS011;3995;50.856;4.404;2023-02-13T15:07:12;7.85;;;7.05;;
7899;SDS011;3995;50.856;4.404;2023-02-13T15:09:45;7.13;;;6.40;;
7899;SDS011;3995;50.856;4.404;2023-02-13T15:12:26;7.93;;;5.97;;
7899;SDS011;3995;50.856;4.404;2023-02-13T15:14:55;8.75;;;6.75;;
7899;SDS011;3995;50.856;4.404;2023-02-13T15:17:26;8.70;;;6.45;;
7899;SDS011;3995;50.856;4.404;2023-02-13T15:19:58;10.55;;;7.07;;
7899;SDS011;3995;50.856;4.404;2023-02-13T15:22:31;7.47;;;6.20;;
7899;SDS011;3995;50.856;4.404;2023-02-13T15:25:01;9.68;;;6.65;;
7899;SDS011;3995;50.856;4.404;2023-02-13T15:27:30;9.15;;;6.53;;
7899;SDS011;3995;50.856;4.404;2023-02-13T15:30:03;10.05;;;6.93;;
7899;SDS011;3995;50.856;4.404;2023-02-13T15:32:43;12.90;;;6.70;;
7899;SDS011;3995;50.856;4.404;2023-02-13T15:35:20;8.60;;;6.75;;
7899;SDS011;3995;50.856;4.404;2023-02-13T15:37:48;10.07;;;5.85;;
7899;SDS011;3995;50.856;4.404;2023-02-13T15:40:21;10.43;;;6.18;;
7899;SDS011;3995;50.856;4.404;2023-02-13T15:42:51;10.73;;;6.70;;
7899;SDS011;3995;50.856;4.404;2023-02-13T15:45:20;11.50;;;5.85;;
7899;SDS011;3995;50.856;4.404;2023-02-13T15:47:50;10.27;;;6.75;;
7899;SDS011;3995;50.856;4.404;2023-02-13T15:50:24;14.02;;;6.70;;
7899;SDS011;3995;50.856;4.404;2023-02-13T15:52:55;11.80;;;6.15;;
7899;SDS011;3995;50.856;4.404;2023-02-13T15:55:24;9.20;;;6.80;;
7899;SDS011;3995;50.856;4.404;2023-02-13T15:57:53;9.40;;;5.72;;
7899;SDS011;3995;50.856;4.404;2023-02-13T16:00:23;9.13;;;6.40;;
7899;SDS011;3995;50.856;4.404;2023-02-13T16:02:51;8.88;;;5.70;;
7899;SDS011;3995;50.856;4.404;2023-02-13T16:05:22;9.68;;;5.32;;